Time;durP1;ratioP1;P1;durP2;ratioP2;P2;SDS_P1;SDS_P2;PMS_P1;PMS_P2;Temp;Humidity;BMP_temperature;BMP_pressure;BME280_temperature;BME280_humidity;BME280_pressure;Samples;Min_cycle;Max_cycle;Signal;HPM_P1;HPM_P2
2023/01/02 00:01:21;;;;;;;1.80;1.70;;;14.10;95.70;;;;;;4974213;28;20234;-90
2023/01/02 00:03:46;;;;;;;1.80;1.70;;;14.10;95.70;;;;;;4974038;28;20192;-90
2023/01/02 00:06:12;;;;;;;1.80;1.57;;;14.10;95.80;;;;;;4973181;28;20183;-86
2023/01/02 00:08:37;;;;;;;1.80;1.70;;;14.10;95.70;;;;;;4974029;28;20608;-87
2023/01/02 00:11:03;;;;;;;4.30;3.10;;;14.20;95.70;;;;;;4974245;28;20579;-88
2023/01/02 00:13:28;;;;;;;3.33;2.60;;;14.20;95.80;;;;;;4971258;28;20221;-87
2023/01/02 00:15:54;;;;;;;1.93;1.90;;;14.20;95.80;;;;;;4964555;28;20221;-87
2023/01/02 00:18:19;;;;;;;2.40;2.00;;;14.10;95.90;;;;;;4960543;28;20185;-86
2023/01/02 00:20:45;;;;;;;2.50;2.30;;;14.10;95.90;;;;;;4973192;28;20647;-88
2023/01/02 00:23:10;;;;;;;2.70;2.50;;;14.10;95.90;;;;;;4973477;28;20214;-87
2023/01/02 00:25:36;;;;;;;3.30;1.90;;;14.10;96.00;;;;;;4973806;28;20257;-87
2023/01/02 00:28:02;;;;;;;3.07;1.60;;;14.10;96.00;;;;;;4974161;28;20175;-88
2023/01/02 00:30:27;;;;;;;3.50;3.03;;;14.10;96.00;;;;;;4973158;28;20214;-87
2023/01/02 00:32:53;;;;;;;3.83;2.50;;;14.10;96.00;;;;;;4971465;28;20213;-89
2023/01/02 00:35:18;;;;;;;3.20;2.50;;;14.10;95.90;;;;;;4971404;28;20187;-87
2023/01/02 00:37:44;;;;;;;2.70;2.57;;;14.10;95.80;;;;;;4971488;28;20701;-86
2023/01/02 00:40:12;;;;;;;4.80;2.87;;;14.20;95.70;;;;;;4975034;28;20194;-87
2023/01/02 00:42:42;;;;;;;5.93;3.07;;;14.20;95.70;;;;;;4970671;28;20187;-88
2023/01/02 00:45:09;;;;;;;3.00;2.30;;;14.20;95.60;;;;;;4973662;28;20417;-86
2023/01/02 00:47:34;;;;;;;1.90;1.77;;;14.20;95.30;;;;;;4960987;28;20431;-88
2023/01/02 00:50:00;;;;;;;2.30;2.10;;;14.30;94.90;;;;;;4972853;28;20422;-84
2023/01/02 00:52:25;;;;;;;9.10;3.43;;;14.40;94.70;;;;;;4972695;28;20209;-89
2023/01/02 00:54:51;;;;;;;2.50;2.30;;;14.40;94.30;;;;;;4972187;28;20411;-87
2023/01/02 00:57:17;;;;;;;4.50;2.13;;;14.50;94.10;;;;;;4973274;28;20210;-86
2023/01/02 00:59:42;;;;;;;1.70;1.60;;;14.60;93.40;;;;;;4971871;28;20182;-87
2023/01/02 01:02:08;;;;;;;2.73;1.93;;;14.60;93.40;;;;;;4970837;28;20230;-87
2023/01/02 01:04:37;;;;;;;4.97;2.47;;;14.70;93.10;;;;;;4971878;28;20553;-87
2023/01/02 01:07:02;;;;;;;2.20;1.57;;;14.70;92.90;;;;;;4959071;28;20180;-86
2023/01/02 01:09:28;;;;;;;2.30;2.10;;;14.80;92.90;;;;;;4971102;28;20410;-87
2023/01/02 01:11:54;;;;;;;1.93;1.83;;;14.80;92.70;;;;;;4971610;28;20249;-87
2023/01/02 01:14:20;;;;;;;3.00;2.80;;;14.80;92.70;;;;;;4971691;28;20232;-87
2023/01/02 01:16:45;;;;;;;2.93;1.93;;;14.80;92.70;;;;;;4958770;28;20432;-87
2023/01/02 01:19:11;;;;;;;1.53;1.43;;;14.80;92.60;;;;;;4971423;28;20174;-88
2023/01/02 01:21:36;;;;;;;2.27;2.07;;;14.80;92.60;;;;;;4970897;28;20233;-88
2023/01/02 01:24:02;;;;;;;2.07;1.80;;;14.80;92.60;;;;;;4963609;28;20178;-88
2023/01/02 01:26:27;;;;;;;3.50;2.63;;;14.80;92.60;;;;;;4966890;28;20653;-87
2023/01/02 01:28:54;;;;;;;2.90;1.63;;;14.80;92.40;;;;;;4971540;28;20178;-87
2023/01/02 01:31:21;;;;;;;2.10;1.73;;;14.80;92.30;;;;;;4971591;28;20237;-87
2023/01/02 01:33:46;;;;;;;1.87;1.77;;;14.80;92.20;;;;;;4971169;28;20563;-86
2023/01/02 01:36:18;;;;;;;4.60;2.20;;;14.80;92.10;;;;;;4969836;28;21142;-87
2023/01/02 01:38:44;;;;;;;2.47;2.27;;;14.80;92.00;;;;;;4961971;28;20175;-86
2023/01/02 01:41:16;;;;;;;1.57;1.47;;;14.80;91.90;;;;;;4956563;28;21022;-87
2023/01/02 01:43:45;;;;;;;1.00;0.90;;;14.90;91.70;;;;;;4961909;28;20454;-87
2023/01/02 01:46:31;;;;;;;3.47;1.80;;;14.80;91.70;;;;;;4967794;28;20415;-87
2023/01/02 01:49:08;;;;;;;3.27;2.77;;;14.90;91.70;;;;;;4952022;28;20453;-88
2023/01/02 01:51:41;;;;;;;3.77;1.10;;;14.90;91.60;;;;;;4970866;28;20438;-85
2023/01/02 01:54:14;;;;;;;1.80;1.70;;;14.80;91.50;;;;;;4971767;28;20484;-86
2023/01/02 01:56:47;;;;;;;4.00;2.53;;;14.90;91.30;;;;;;4972875;28;20425;-88
2023/01/02 01:59:13;;;;;;;2.70;2.20;;;14.90;91.20;;;;;;4972359;28;20410;-87
2023/01/02 02:01:41;;;;;;;1.83;1.77;;;14.90;91.00;;;;;;4972719;28;20508;-85
2023/01/02 02:04:09;;;;;;;1.47;1.43;;;14.90;90.90;;;;;;4974012;28;20417;-87
2023/01/02 02:06:35;;;;;;;3.00;1.77;;;14.90;90.90;;;;;;4972534;28;20415;-86
2023/01/02 02:09:08;;;;;;;3.73;1.90;;;15.00;90.70;;;;;;4983345;28;20910;-85
2023/01/02 02:11:34;;;;;;;2.10;1.53;;;15.00;90.40;;;;;;4972553;28;20202;-86
2023/01/02 02:14:00;;;;;;;1.80;1.70;;;15.00;90.40;;;;;;4972258;28;21165;-86
2023/01/02 02:16:48;;;;;;;2.03;1.43;;;15.00;90.30;;;;;;4972166;28;20178;-86
2023/01/02 02:19:33;;;;;;;3.60;2.00;;;15.00;90.30;;;;;;4963466;28;20430;-87
2023/01/02 02:22:35;;;;;;;1.80;1.30;;;15.00;90.30;;;;;;4971551;28;20454;-86
2023/01/02 02:25:32;;;;;;;2.40;2.20;;;15.00;90.30;;;;;;4967626;28;20429;-86
2023/01/02 02:28:13;;;;;;;2.27;1.83;;;15.00;90.30;;;;;;4971824;28;21118;-86
2023/01/02 02:31:16;;;;;;;4.23;1.57;;;15.00;90.10;;;;;;4969459;28;20442;-86
2023/01/02 02:33:56;;;;;;;1.77;1.57;;;15.00;90.10;;;;;;4955092;28;20829;-86
2023/01/02 02:36:39;;;;;;;1.20;1.10;;;15.00;89.90;;;;;;4972748;28;20412;-87
2023/01/02 02:39:05;;;;;;;2.33;2.00;;;15.00;90.00;;;;;;4972224;28;20847;-86
2023/01/02 02:41:55;;;;;;;6.17;1.53;;;15.00;89.90;;;;;;4970970;28;20482;-86
2023/01/02 02:44:47;;;;;;;2.43;2.23;;;15.00;89.80;;;;;;4962556;28;20183;-86
2023/01/02 02:47:21;;;;;;;3.07;2.70;;;15.00;89.70;;;;;;4960728;28;20414;-86
2023/01/02 02:50:09;;;;;;;1.57;1.40;;;15.00;89.50;;;;;;4971082;28;20418;-86
2023/01/02 02:52:46;;;;;;;2.33;1.50;;;15.10;89.60;;;;;;4964455;28;20405;-85
2023/01/02 02:55:24;;;;;;;3.20;1.73;;;15.00;89.50;;;;;;4965565;28;20926;-87
2023/01/02 02:57:51;;;;;;;1.20;1.10;;;15.10;89.50;;;;;;4960920;28;20425;-86
2023/01/02 03:00:21;;;;;;;2.10;1.97;;;15.10;89.40;;;;;;4971837;28;21087;-86
2023/01/02 03:02:46;;;;;;;2.47;1.50;;;15.10;89.30;;;;;;4964812;28;20431;-87
2023/01/02 03:05:20;;;;;;;2.80;1.80;;;15.10;89.50;;;;;;4967207;28;20421;-88
2023/01/02 03:07:56;;;;;;;1.70;1.60;;;15.00;89.60;;;;;;5011563;22;20239;-82
2023/01/02 03:10:55;;;;;;;1.73;1.00;;;15.00;89.50;;;;;;4991928;28;20447;-81
2023/01/02 03:13:35;;;;;;;2.00;1.83;;;15.00;89.50;;;;;;4989746;28;20443;-79
2023/01/02 03:16:26;;;;;;;1.27;1.17;;;15.00;89.50;;;;;;4985174;28;20417;-84
2023/01/02 03:19:32;;;;;;;9.87;2.63;;;15.00;89.60;;;;;;4978288;28;20446;-84
2023/01/02 03:22:11;;;;;;;1.93;1.73;;;15.00;89.50;;;;;;4918286;29;20440;-84
2023/01/02 03:24:38;;;;;;;1.30;1.20;;;15.00;89.40;;;;;;4926383;29;20423;-84
2023/01/02 03:27:09;;;;;;;1.40;1.40;;;15.00;89.40;;;;;;4956228;28;20499;-84
2023/01/02 03:29:39;;;;;;;2.10;1.10;;;15.00;89.20;;;;;;4973347;28;20429;-83
2023/01/02 03:32:11;;;;;;;1.80;1.70;;;15.00;89.20;;;;;;4973660;28;20517;-80
2023/01/02 03:34:40;;;;;;;2.13;1.90;;;15.10;89.00;;;;;;4979256;28;20439;-83
2023/01/02 03:37:11;;;;;;;1.57;1.23;;;15.10;88.70;;;;;;4978977;28;20453;-87
2023/01/02 03:39:47;;;;;;;2.10;1.47;;;15.10;89.00;;;;;;4961072;28;20418;-82
2023/01/02 03:42:38;;;;;;;1.90;1.50;;;15.10;88.80;;;;;;4973323;28;20504;-85
2023/01/02 03:45:26;;;;;;;57.83;3.33;;;15.10;88.70;;;;;;4978486;28;20500;-84
2023/01/02 03:47:56;;;;;;;1.47;1.37;;;15.10;88.60;;;;;;4977803;28;20859;-80
2023/01/02 03:50:32;;;;;;;2.40;1.50;;;15.10;88.60;;;;;;4973067;28;20438;-80
2023/01/02 03:52:58;;;;;;;2.80;1.70;;;15.10;88.70;;;;;;4975555;28;20468;-85
2023/01/02 03:55:28;;;;;;;1.10;1.00;;;15.10;88.50;;;;;;4976503;28;20485;-83
2023/01/02 03:58:20;;;;;;;1.30;1.20;;;15.10;88.50;;;;;;4976269;28;20481;-79
2023/01/02 04:00:55;;;;;;;2.03;1.90;;;15.10;88.70;;;;;;4977061;28;20480;-85
2023/01/02 04:03:27;;;;;;;1.33;1.23;;;15.10;88.50;;;;;;4976600;28;20429;-80
2023/01/02 04:06:07;;;;;;;1.10;1.07;;;15.10;88.50;;;;;;4978588;28;20517;-85
2023/01/02 04:08:45;;;;;;;1.33;1.23;;;15.10;88.40;;;;;;4964898;28;20474;-80
2023/01/02 04:11:16;;;;;;;1.63;1.53;;;15.10;88.40;;;;;;4965085;28;20776;-81
2023/01/02 04:13:47;;;;;;;2.80;1.47;;;15.10;88.20;;;;;;4977007;28;20418;-82
2023/01/02 04:16:19;;;;;;;2.90;2.00;;;15.10;88.30;;;;;;4986557;28;20988;-79
2023/01/02 04:18:52;;;;;;;1.47;1.37;;;15.10;88.20;;;;;;4990653;28;20449;-80
2023/01/02 04:21:25;;;;;;;1.17;1.07;;;15.10;88.30;;;;;;4995483;28;20464;-82
2023/01/02 04:23:58;;;;;;;3.40;2.40;;;15.10;88.40;;;;;;5003111;28;20430;-80
2023/01/02 04:26:44;;;;;;;1.90;1.83;;;15.10;88.30;;;;;;4980610;28;20804;-82
2023/01/02 04:29:10;;;;;;;1.77;1.57;;;15.00;88.30;;;;;;4982448;28;20425;-82
2023/01/02 04:31:47;;;;;;;1.73;1.10;;;15.00;88.20;;;;;;4994360;28;20516;-79
2023/01/02 04:34:15;;;;;;;2.63;1.97;;;15.00;88.30;;;;;;4985637;28;20224;-83
2023/01/02 04:36:41;;;;;;;1.30;1.20;;;15.00;88.30;;;;;;4976914;28;20422;-80
2023/01/02 04:39:07;;;;;;;1.57;1.47;;;15.00;88.40;;;;;;4985528;28;20512;-82
2023/01/02 04:41:33;;;;;;;3.63;1.53;;;15.00;88.50;;;;;;4987755;28;20580;-81
2023/01/02 04:43:59;;;;;;;2.00;1.63;;;15.00;88.50;;;;;;4975718;28;20195;-83
2023/01/02 04:46:26;;;;;;;1.10;1.00;;;15.00;88.50;;;;;;4978174;28;20421;-83
2023/01/02 04:48:53;;;;;;;1.57;1.47;;;15.00;88.30;;;;;;4984558;28;21023;-81
2023/01/02 04:51:19;;;;;;;2.13;1.97;;;15.00;88.40;;;;;;4974522;28;20438;-81
2023/01/02 04:53:52;;;;;;;2.20;1.50;;;15.00;88.50;;;;;;4974469;28;20517;-81
2023/01/02 04:56:17;;;;;;;5.67;1.53;;;15.00;88.40;;;;;;4974221;28;20430;-82
2023/01/02 04:58:44;;;;;;;7.30;1.90;;;14.90;88.40;;;;;;4984840;28;20449;-83
2023/01/02 05:01:12;;;;;;;4.13;1.60;;;14.90;88.50;;;;;;4977329;28;20297;-81
2023/01/02 05:03:42;;;;;;;1.23;1.13;;;14.90;88.40;;;;;;4975292;28;20429;-79
2023/01/02 05:06:07;;;;;;;1.00;0.90;;;14.90;88.50;;;;;;4975215;28;20426;-83
2023/01/02 05:08:33;;;;;;;2.40;1.63;;;14.90;88.40;;;;;;4974358;28;20532;-80
2023/01/02 05:11:07;;;;;;;1.60;1.50;;;14.90;88.50;;;;;;4974152;28;20205;-80
2023/01/02 05:13:33;;;;;;;1.37;1.27;;;14.80;88.60;;;;;;4975769;28;20820;-80
2023/01/02 05:15:58;;;;;;;1.90;1.80;;;14.80;88.70;;;;;;4978995;28;20740;-86
2023/01/02 05:18:26;;;;;;;2.70;1.90;;;14.80;88.90;;;;;;4981864;28;20441;-82
2023/01/02 05:20:51;;;;;;;3.27;2.70;;;14.70;88.80;;;;;;4973963;28;20242;-80
2023/01/02 05:26:15;;;;;;;1.30;1.20;;;14.60;89.00;;;;;;4935624;28;20291;-79
2023/01/02 05:28:41;;;;;;;2.20;1.13;;;14.60;89.20;;;;;;4971374;28;20442;-84
2023/01/02 05:31:06;;;;;;;1.47;1.37;;;14.60;89.30;;;;;;4973941;28;20440;-79
2023/01/02 05:33:32;;;;;;;9.13;2.57;;;14.60;89.30;;;;;;4972152;28;20195;-80
2023/01/02 05:35:57;;;;;;;5.80;2.27;;;14.60;89.20;;;;;;4964075;28;20653;-80
2023/01/02 05:38:23;;;;;;;1.73;1.17;;;14.60;89.00;;;;;;4961652;28;20205;-80
2023/01/02 05:40:48;;;;;;;1.63;1.60;;;14.60;89.00;;;;;;4974152;28;20300;-80
2023/01/02 05:43:14;;;;;;;1.20;1.10;;;14.60;88.90;;;;;;4973273;28;20277;-80
2023/01/02 05:45:39;;;;;;;1.40;1.30;;;14.60;88.80;;;;;;4983720;28;20178;-79
2023/01/02 05:48:05;;;;;;;1.50;1.40;;;14.60;88.90;;;;;;4967531;28;20642;-80
2023/01/02 05:50:30;;;;;;;2.20;1.40;;;14.60;88.90;;;;;;4974001;28;20196;-82
2023/01/02 05:52:56;;;;;;;2.03;1.63;;;14.60;88.90;;;;;;4975479;28;20196;-82
2023/01/02 05:55:21;;;;;;;7.10;1.23;;;14.60;88.80;;;;;;4981655;28;20611;-84
2023/01/02 05:57:48;;;;;;;3.00;1.77;;;14.60;88.90;;;;;;4973862;28;20198;-83
2023/01/02 06:00:15;;;;;;;1.30;1.20;;;14.60;88.80;;;;;;4971167;28;20216;-84
2023/01/02 06:02:44;;;;;;;3.07;2.60;;;14.60;88.70;;;;;;4976163;28;20947;-85
2023/01/02 06:05:10;;;;;;;3.70;1.80;;;14.60;88.60;;;;;;4975694;28;20421;-85
2023/01/02 06:07:35;;;;;;;1.20;1.10;;;14.70;88.50;;;;;;4968687;28;20477;-85
2023/01/02 06:10:00;;;;;;;2.70;1.73;;;14.70;88.40;;;;;;4974718;28;20190;-84
2023/01/02 06:12:26;;;;;;;2.17;1.90;;;14.70;88.40;;;;;;4973507;28;20196;-87
2023/01/02 06:14:51;;;;;;;1.80;1.70;;;14.70;88.30;;;;;;4976096;28;20631;-85
2023/01/02 06:17:17;;;;;;;5.43;1.70;;;14.80;88.10;;;;;;4973562;28;20213;-83
2023/01/02 06:19:42;;;;;;;1.53;1.43;;;14.80;88.10;;;;;;4977752;28;20214;-87
2023/01/02 06:22:08;;;;;;;1.83;1.73;;;14.80;88.10;;;;;;4978772;28;20386;-84
2023/01/02 06:24:33;;;;;;;4.53;2.10;;;14.80;88.30;;;;;;4981126;28;20281;-82
2023/01/02 06:26:59;;;;;;;1.93;1.83;;;14.80;88.20;;;;;;4987488;28;20256;-83
2023/01/02 06:29:24;;;;;;;1.07;0.97;;;14.80;88.10;;;;;;4978205;28;20568;-84
2023/01/02 06:31:50;;;;;;;2.47;1.47;;;14.80;88.10;;;;;;4969264;28;20209;-83
2023/01/02 06:34:16;;;;;;;5.23;2.00;;;14.80;87.80;;;;;;4972110;28;20249;-85
2023/01/02 06:36:42;;;;;;;5.90;2.40;;;14.80;87.80;;;;;;4970279;28;20611;-88
2023/01/02 06:39:10;;;;;;;2.17;1.20;;;14.80;87.90;;;;;;4972801;28;20426;-81
2023/01/02 06:41:36;;;;;;;4.33;1.33;;;14.80;88.10;;;;;;4984336;28;20716;-86
2023/01/02 06:44:01;;;;;;;1.60;1.50;;;14.80;88.20;;;;;;4990823;28;20441;-83
2023/01/02 06:46:27;;;;;;;4.43;2.07;;;14.70;88.10;;;;;;4993198;28;20194;-84
2023/01/02 06:48:52;;;;;;;3.33;1.73;;;14.70;88.20;;;;;;4978323;28;20580;-85
2023/01/02 06:51:20;;;;;;;6.07;1.53;;;14.70;88.30;;;;;;4971551;28;20182;-87
2023/01/02 06:53:49;;;;;;;2.67;1.73;;;14.70;88.10;;;;;;4970742;28;20186;-86
2023/01/02 06:56:19;;;;;;;5.17;2.13;;;14.70;88.00;;;;;;4977913;28;20409;-84
2023/01/02 06:58:45;;;;;;;5.63;1.10;;;14.70;87.90;;;;;;4971799;28;20865;-85
2023/01/02 07:01:16;;;;;;;3.57;2.63;;;14.80;88.00;;;;;;4975429;28;20542;-84
2023/01/02 07:03:41;;;;;;;1.83;1.73;;;14.80;87.90;;;;;;4975434;28;20434;-89
2023/01/02 07:06:16;;;;;;;1.37;1.30;;;14.80;87.80;;;;;;4977092;28;20507;-84
2023/01/02 07:08:43;;;;;;;5.00;3.27;;;14.80;88.10;;;;;;4974022;28;20220;-88
2023/01/02 07:11:14;;;;;;;1.67;1.57;;;14.80;88.70;;;;;;4971322;28;20511;-85
2023/01/02 07:13:41;;;;;;;1.47;1.37;;;14.80;89.10;;;;;;4974152;28;20959;-85
2023/01/02 07:16:43;;;;;;;1.40;1.30;;;14.70;89.00;;;;;;4983683;28;20426;-86
2023/01/02 07:19:13;;;;;;;1.40;1.30;;;14.70;88.90;;;;;;4979569;28;20417;-83
2023/01/02 07:21:45;;;;;;;5.37;2.00;;;14.70;89.00;;;;;;4978130;28;20839;-85
2023/01/02 07:24:14;;;;;;;2.63;1.93;;;14.70;89.00;;;;;;4977373;28;20455;-79
2023/01/02 07:26:45;;;;;;;1.33;1.23;;;14.70;89.10;;;;;;4982870;28;20448;-84
2023/01/02 07:29:13;;;;;;;1.57;1.40;;;14.70;89.10;;;;;;4982872;28;20487;-84
2023/01/02 07:31:41;;;;;;;2.40;2.20;;;14.60;89.00;;;;;;4968600;28;20433;-86
2023/01/02 07:34:14;;;;;;;2.33;1.93;;;14.60;89.10;;;;;;4987430;28;20424;-85
2023/01/02 07:36:42;;;;;;;2.80;2.10;;;14.60;89.10;;;;;;4981766;28;20520;-86
2023/01/02 07:39:08;;;;;;;1.63;1.40;;;14.60;89.30;;;;;;4989091;28;20920;-87
2023/01/02 07:41:34;;;;;;;4.80;2.57;;;14.60;89.10;;;;;;4978230;28;20560;-84
2023/01/02 07:44:00;;;;;;;1.63;1.17;;;14.60;89.20;;;;;;4983482;28;20186;-87
2023/01/02 07:46:25;;;;;;;1.60;1.10;;;14.60;89.20;;;;;;4983867;28;20443;-86
2023/01/02 07:48:51;;;;;;;1.63;1.13;;;14.60;89.20;;;;;;4977780;28;20202;-85
2023/01/02 07:51:18;;;;;;;1.57;1.47;;;14.60;89.20;;;;;;4981504;28;20185;-88
2023/01/02 07:53:43;;;;;;;1.73;1.30;;;14.50;89.20;;;;;;4976393;28;20666;-86
2023/01/02 07:56:09;;;;;;;1.50;1.40;;;14.50;89.20;;;;;;4981580;28;20518;-86
2023/01/02 07:58:35;;;;;;;2.60;1.63;;;14.50;89.20;;;;;;4981764;28;20203;-85
2023/01/02 08:01:08;;;;;;;1.43;1.30;;;14.50;89.40;;;;;;4975092;28;20206;-85
2023/01/02 08:03:33;;;;;;;1.50;1.40;;;14.50;89.40;;;;;;4983140;28;20181;-84
2023/01/02 08:06:07;;;;;;;2.70;2.23;;;14.50;89.30;;;;;;4973543;28;20906;-85
2023/01/02 08:08:34;;;;;;;2.40;2.20;;;14.50;89.50;;;;;;4966807;28;20237;-85
2023/01/02 08:11:06;;;;;;;2.40;1.90;;;14.40;89.60;;;;;;4980110;28;21036;-84
2023/01/02 08:13:32;;;;;;;3.00;1.37;;;14.40;89.40;;;;;;4974270;28;20426;-85
2023/01/02 08:16:02;;;;;;;1.20;1.10;;;14.40;89.50;;;;;;4973353;28;20422;-87
2023/01/02 08:18:28;;;;;;;7.33;1.80;;;14.40;89.40;;;;;;4974091;28;20437;-84
2023/01/02 08:20:54;;;;;;;2.93;1.53;;;14.40;89.50;;;;;;4972923;28;20469;-84
2023/01/02 08:23:20;;;;;;;1.90;1.80;;;14.40;89.50;;;;;;4971042;28;20266;-87
2023/01/02 08:25:45;;;;;;;2.50;2.30;;;14.40;89.30;;;;;;4973818;28;20929;-85
2023/01/02 08:28:11;;;;;;;1.23;1.13;;;14.40;89.20;;;;;;4972274;28;20198;-86
2023/01/02 08:30:39;;;;;;;1.80;1.30;;;14.50;89.20;;;;;;4968252;28;20620;-85
2023/01/02 08:33:04;;;;;;;1.10;1.00;;;14.50;89.10;;;;;;4966408;28;20190;-87
2023/01/02 08:35:30;;;;;;;2.90;2.47;;;14.50;89.20;;;;;;4973035;28;20418;-85
2023/01/02 08:37:55;;;;;;;1.27;1.23;;;14.50;89.40;;;;;;4976313;28;20316;-86
2023/01/02 08:40:21;;;;;;;1.53;1.10;;;14.40;89.10;;;;;;4987425;28;20202;-85
2023/01/02 08:42:46;;;;;;;1.07;1.00;;;14.50;89.10;;;;;;4973624;28;20189;-85
2023/01/02 08:45:12;;;;;;;1.73;1.30;;;14.50;89.30;;;;;;4973421;28;20237;-89
2023/01/02 08:47:37;;;;;;;2.90;1.90;;;14.40;89.20;;;;;;4972974;28;20198;-85
2023/01/02 08:50:03;;;;;;;2.23;1.67;;;14.40;89.30;;;;;;4973092;28;20183;-85
2023/01/02 08:52:29;;;;;;;17.70;2.00;;;14.40;89.30;;;;;;4971697;28;20575;-86
2023/01/02 08:54:54;;;;;;;5.83;2.67;;;14.40;89.40;;;;;;4972052;28;20530;-86
2023/01/02 08:57:20;;;;;;;1.20;1.10;;;14.40;89.30;;;;;;4972078;28;20202;-85
2023/01/02 08:59:45;;;;;;;1.43;1.33;;;14.40;89.20;;;;;;4972321;28;20171;-84
2023/01/02 09:02:13;;;;;;;12.63;4.33;;;14.40;89.40;;;;;;4985439;28;20204;-85
2023/01/02 09:04:39;;;;;;;7.53;3.50;;;14.40;89.20;;;;;;4981903;28;20182;-86
2023/01/02 09:07:05;;;;;;;2.37;2.17;;;14.50;89.10;;;;;;5001463;22;20970;-88
2023/01/02 09:09:33;;;;;;;5.60;2.07;;;14.50;89.30;;;;;;4992614;28;20457;-81
2023/01/02 09:11:59;;;;;;;1.43;1.30;;;14.50;89.40;;;;;;4996544;28;20192;-83
2023/01/02 09:14:25;;;;;;;2.30;1.70;;;14.50;89.30;;;;;;4996109;28;20727;-83
2023/01/02 09:16:51;;;;;;;1.63;1.47;;;14.50;89.40;;;;;;4998742;28;20196;-79
2023/01/02 09:19:17;;;;;;;4.87;1.83;;;14.50;89.30;;;;;;4977631;28;20837;-86
2023/01/02 09:21:43;;;;;;;1.30;1.20;;;14.50;89.30;;;;;;4971347;28;20508;-85
2023/01/02 09:24:09;;;;;;;1.60;1.50;;;14.50;89.20;;;;;;4963261;28;20426;-85
2023/01/02 09:26:36;;;;;;;2.30;2.10;;;14.50;89.20;;;;;;4982386;28;20182;-86
2023/01/02 09:29:03;;;;;;;1.33;1.23;;;14.50;89.10;;;;;;4985322;28;20469;-86
2023/01/02 09:31:28;;;;;;;6.70;4.83;;;14.50;89.40;;;;;;4975539;28;20429;-85
2023/01/02 09:33:54;;;;;;;11.30;7.83;;;14.50;89.40;;;;;;4975952;28;20461;-86
2023/01/02 09:36:20;;;;;;;9.63;7.60;;;14.50;89.10;;;;;;4973905;28;20182;-87
2023/01/02 09:39:04;;;;;;;4.90;4.60;;;14.50;89.20;;;;;;4995345;22;20225;-87
2023/01/02 09:41:45;;;;;;;23.63;4.90;;;14.50;89.60;;;;;;4992543;28;20457;-86
2023/01/02 09:44:25;;;;;;;5.90;4.53;;;14.50;89.30;;;;;;4993117;28;20535;-86
2023/01/02 09:47:15;;;;;;;10.80;2.87;;;14.60;89.40;;;;;;4997114;28;20509;-86
2023/01/02 09:50:12;;;;;;;4.27;3.63;;;14.60;89.20;;;;;;4972673;28;20422;-85
2023/01/02 09:56:34;;;;;;;19.60;4.03;;;14.70;89.20;;;;;;4955773;28;21007;-86
2023/01/02 09:59:43;;;;;;;7.80;5.10;;;14.70;89.00;;;;;;4970461;28;20496;-86
2023/01/02 10:02:33;;;;;;;2.50;1.97;;;14.80;89.10;;;;;;4966573;28;20977;-85
2023/01/02 10:08:41;;;;;;;3.87;1.93;;;14.80;88.60;;;;;;4963858;28;20441;-86
2023/01/02 10:11:30;;;;;;;2.80;1.87;;;14.90;88.50;;;;;;4969994;28;20542;-86
2023/01/02 10:14:25;;;;;;;10.07;3.00;;;14.90;88.70;;;;;;4965372;28;20505;-88
2023/01/02 10:16:54;;;;;;;7.13;3.40;;;14.90;88.80;;;;;;4987146;28;20432;-86
2023/01/02 10:19:54;;;;;;;4.43;2.97;;;15.00;88.50;;;;;;4970949;28;20442;-87
2023/01/02 10:22:27;;;;;;;2.20;2.00;;;15.00;88.60;;;;;;4956420;28;20808;-86
2023/01/02 10:25:32;;;;;;;7.10;2.43;;;15.00;88.50;;;;;;4961121;28;20485;-86
2023/01/02 10:28:18;;;;;;;3.00;2.83;;;15.10;88.20;;;;;;4963144;28;20450;-86
2023/01/02 10:30:54;;;;;;;3.30;2.57;;;15.10;88.40;;;;;;4975940;28;20436;-85
2023/01/02 10:33:35;;;;;;;3.50;2.67;;;15.10;88.30;;;;;;4984408;28;20944;-86
2023/01/02 10:36:01;;;;;;;10.87;4.40;;;15.20;88.10;;;;;;4982241;28;20429;-87
2023/01/02 10:38:37;;;;;;;2.03;1.93;;;15.20;88.30;;;;;;4983969;28;20475;-84
2023/01/02 10:41:03;;;;;;;1.23;1.13;;;15.20;88.00;;;;;;4987600;28;20519;-91
2023/01/02 10:43:31;;;;;;;1.90;1.60;;;15.20;87.90;;;;;;4978016;28;20426;-89
2023/01/02 10:45:58;;;;;;;1.23;1.13;;;15.30;87.70;;;;;;4988858;28;20422;-90
2023/01/02 10:48:31;;;;;;;1.53;1.43;;;15.30;87.60;;;;;;4984141;28;20441;-89
2023/01/02 10:51:02;;;;;;;1.37;1.27;;;15.30;87.30;;;;;;5007817;28;20441;-91
2023/01/02 10:53:31;;;;;;;3.97;2.93;;;15.40;87.60;;;;;;4990852;28;20425;-87
2023/01/02 10:56:01;;;;;;;3.30;1.50;;;15.40;87.20;;;;;;4983442;28;20441;-90
2023/01/02 11:01:23;;;;;;;2.23;2.03;;;15.50;87.40;;;;;;5007260;28;20496;-91
2023/01/02 11:03:56;;;;;;;3.47;1.73;;;15.70;86.80;;;;;;4998860;28;20577;-87
2023/01/02 11:10:39;;;;;;;;;;;;;;;;;;;;;
2023/01/02 11:13:57;;;;;;;;;;;;;;;;;;;;;
2023/01/02 11:16:55;;;;;;;1.80;1.43;;;16.10;86.00;;;;;;4898768;29;20428;-86
2023/01/02 11:19:55;;;;;;;1.73;1.63;;;16.30;85.20;;;;;;4894526;29;20503;-86
2023/01/02 11:22:54;;;;;;;2.70;2.30;;;16.60;84.60;;;;;;4905828;29;20746;-86
2023/01/02 11:26:45;;;;;;;;;;;;;;;;;;;;;
2023/01/02 11:28:45;;;;;;;1.20;1.20;;;16.60;83.60;;;;;;4880945;29;20458;-84
2023/01/02 11:31:34;;;;;;;1.50;1.40;;;16.60;83.60;;;;;;4881947;29;20425;-87
2023/01/02 11:34:24;;;;;;;1.60;1.43;;;16.50;84.00;;;;;;4880546;29;20845;-89
2023/01/02 11:39:35;;;;;;;3.10;1.73;;;16.50;83.80;;;;;;4999821;22;20506;-86
2023/01/02 11:49:49;;;;;;;;;;;;;;;;;;;;;
2023/01/02 11:52:35;;;;;;;2.60;1.50;;;16.50;83.70;;;;;;4923840;29;20438;-85
2023/01/02 11:55:33;;;;;;;1.83;1.30;;;16.50;83.40;;;;;;4934668;29;20430;-86
2023/01/02 11:58:06;;;;;;;1.63;1.60;;;16.60;83.20;;;;;;4970391;28;20454;-84
2023/01/02 12:00:38;;;;;;;3.63;1.10;;;16.60;83.30;;;;;;4955317;28;20458;-86
2023/01/02 12:03:49;;;;;;;;;;;;;;;;;;;;;
2023/01/02 12:06:43;;;;;;;1.50;1.17;;;16.60;83.40;;;;;;4922582;28;20427;-87
2023/01/02 12:12:22;;;;;;;1.53;1.47;;;16.60;83.00;;;;;;4970628;28;20500;-89
2023/01/02 12:15:14;;;;;;;1.23;1.13;;;16.80;82.30;;;;;;4963111;28;20948;-84
2023/01/02 12:17:45;;;;;;;2.13;1.97;;;17.00;82.00;;;;;;4974901;28;20525;-87
2023/01/02 12:20:39;;;;;;;1.40;1.30;;;17.20;81.80;;;;;;4974270;28;20432;-86
2023/01/02 12:23:31;;;;;;;1.10;1.00;;;17.40;81.20;;;;;;4974112;28;20414;-85
2023/01/02 12:26:14;;;;;;;5.33;1.87;;;17.50;81.00;;;;;;4974012;28;20406;-84
2023/01/02 12:28:46;;;;;;;1.10;1.00;;;17.60;80.40;;;;;;4964582;28;20446;-84
2023/01/02 12:31:42;;;;;;;2.20;2.00;;;17.70;79.90;;;;;;4970766;28;20414;-85
2023/01/02 12:34:49;;;;;;;1.00;0.90;;;17.70;80.00;;;;;;4955685;28;20509;-89
2023/01/02 12:37:26;;;;;;;1.33;1.23;;;17.50;79.80;;;;;;4977811;28;20418;-85
2023/01/02 12:40:08;;;;;;;1.10;1.00;;;17.30;80.60;;;;;;4965113;28;20429;-85
2023/01/02 12:42:52;;;;;;;1.73;1.30;;;17.10;80.70;;;;;;4983549;28;20478;-85
2023/01/02 12:45:35;;;;;;;1.60;1.50;;;17.00;81.40;;;;;;4959749;28;20414;-85
2023/01/02 12:48:13;;;;;;;1.30;1.20;;;16.90;81.50;;;;;;4975493;28;20454;-83
2023/01/02 12:51:11;;;;;;;1.60;1.50;;;16.80;81.60;;;;;;4965934;28;20414;-84
2023/01/02 12:53:46;;;;;;;3.70;1.47;;;16.70;81.90;;;;;;4970182;28;20415;-86
2023/01/02 12:56:40;;;;;;;2.80;1.83;;;16.60;82.00;;;;;;4975274;28;20418;-84
2023/01/02 12:59:18;;;;;;;1.10;1.00;;;16.60;82.30;;;;;;4985310;28;20446;-84
2023/01/02 13:02:38;;;;;;;1.70;1.60;;;16.50;82.60;;;;;;4971585;28;20563;-86
2023/01/02 13:05:13;;;;;;;1.53;1.43;;;16.50;82.70;;;;;;4972608;28;20707;-85
2023/01/02 13:08:04;;;;;;;16.33;2.70;;;16.50;82.70;;;;;;4972739;28;20532;-85
2023/01/02 13:10:45;;;;;;;1.20;1.10;;;16.40;82.80;;;;;;4969786;28;20429;-86
2023/01/02 13:13:23;;;;;;;2.63;1.57;;;16.40;82.50;;;;;;4969126;28;20417;-86
2023/01/02 13:15:51;;;;;;;2.10;2.00;;;16.40;82.70;;;;;;4971339;28;20788;-86
2023/01/02 13:18:51;;;;;;;1.53;1.20;;;16.40;82.50;;;;;;4969666;28;20442;-84
2023/01/02 13:21:47;;;;;;;3.23;1.40;;;16.40;82.60;;;;;;4970914;28;20489;-86
2023/01/02 13:24:19;;;;;;;2.00;1.90;;;16.50;82.60;;;;;;4970931;28;20425;-84
2023/01/02 13:26:45;;;;;;;2.67;2.30;;;16.50;82.50;;;;;;4964774;28;20508;-85
2023/01/02 13:29:11;;;;;;;1.70;1.47;;;16.50;82.40;;;;;;4971010;28;20461;-84
2023/01/02 13:31:46;;;;;;;1.53;1.40;;;16.40;82.80;;;;;;4965385;28;20195;-83
2023/01/02 13:34:26;;;;;;;2.30;1.70;;;16.40;82.70;;;;;;4968550;28;20858;-84
2023/01/02 13:37:07;;;;;;;1.83;1.73;;;16.40;82.80;;;;;;4977684;28;20501;-85
2023/01/02 13:39:39;;;;;;;4.10;2.30;;;16.40;82.70;;;;;;4970714;28;20441;-83
2023/01/02 13:44:59;;;;;;;3.73;2.50;;;16.50;83.20;;;;;;4971392;28;20496;-85
2023/01/02 13:47:31;;;;;;;9.33;2.17;;;16.40;83.20;;;;;;4967801;28;20438;-85
2023/01/02 13:50:23;;;;;;;3.00;1.50;;;16.40;83.20;;;;;;4971920;28;20450;-82
2023/01/02 13:53:03;;;;;;;1.57;1.30;;;16.40;83.50;;;;;;4970995;28;20422;-83
2023/01/02 13:55:39;;;;;;;1.43;1.33;;;16.40;83.50;;;;;;4970879;28;20418;-86
2023/01/02 13:58:24;;;;;;;;;;;;;;;;;;;;;